Time;durP1;ratioP1;P1;durP2;ratioP2;P2;SDS_P1;SDS_P2;PMS_P1;PMS_P2;Temp;Humidity;BMP_temperature;BMP_pressure;BME280_temperature;BME280_humidity;BME280_pressure;Samples;Min_cycle;Max_cycle;Signal;HPM_P1;HPM_P2
2024/03/13 00:02:04;;;;;;;84.40;47.30;;;;;;;7.52;94.30;100180.84;128922;1251;113461;-69
2024/03/13 00:05:15;;;;;;;80.20;44.50;;;;;;;7.51;94.24;100180.88;128709;1259;114078;-64
2024/03/13 00:08:26;;;;;;;82.20;44.70;;;;;;;7.51;94.38;100178.05;128948;1251;128859;-64
2024/03/13 00:11:35;;;;;;;;;;;;;;;7.49;94.42;100178.46;128876;1256;116726;-66
2024/03/13 00:14:38;;;;;;;82.10;45.50;;;;;;;7.48;94.36;100172.64;129001;1256;113284;-68
2024/03/13 00:17:49;;;;;;;80.70;46.00;;;;;;;7.48;94.33;100171.42;128962;1256;114110;-62
2024/03/13 00:20:58;;;;;;;78.10;41.40;;;;;;;7.47;94.29;100169.84;128853;1252;113469;-63
2024/03/13 00:24:03;;;;;;;74.80;42.60;;;;;;;7.44;94.25;100171.36;128896;1251;129097;-63
2024/03/13 00:27:09;;;;;;;78.50;43.10;;;;;;;7.42;94.29;100172.33;128738;1259;114866;-62
2024/03/13 00:30:14;;;;;;;78.80;42.90;;;;;;;7.40;94.34;100172.23;128884;1257;113190;-63
2024/03/13 00:33:20;;;;;;;78.00;41.20;;;;;;;7.37;93.93;100170.57;128904;1251;113233;-62
2024/03/13 00:36:30;;;;;;;78.60;41.00;;;;;;;7.34;94.12;100176.36;128848;1251;113241;-62
2024/03/13 00:39:39;;;;;;;71.90;40.30;;;;;;;7.32;94.15;100181.26;128789;1251;128896;-61
2024/03/13 00:42:47;;;;;;;72.70;39.40;;;;;;;7.31;94.05;100179.16;128802;1257;114627;-62
2024/03/13 00:45:53;;;;;;;71.60;37.50;;;;;;;7.31;93.79;100178.80;128717;1259;113298;-62
2024/03/13 00:48:59;;;;;;;69.00;37.10;;;;;;;7.24;93.50;100181.19;128953;1253;113237;-62
2024/03/13 00:52:11;;;;;;;73.50;38.90;;;;;;;7.17;93.66;100180.92;128801;1251;113293;-62
2024/03/13 00:55:23;;;;;;;65.80;36.40;;;;;;;7.12;93.71;100180.90;128597;1257;127847;-61
2024/03/13 00:58:29;;;;;;;70.10;38.10;;;;;;;7.05;93.39;100181.71;128801;1256;115333;-62
2024/03/13 01:01:40;;;;;;;69.30;36.00;;;;;;;6.97;93.34;100183.77;128773;1251;113298;-63
2024/03/13 01:04:50;;;;;;;67.50;38.10;;;;;;;6.91;93.14;100181.01;128823;1251;113691;-63
2024/03/13 01:08:00;;;;;;;65.00;38.60;;;;;;;6.83;93.28;100176.83;128828;1256;113227;-61
2024/03/13 01:11:05;;;;;;;66.20;36.00;;;;;;;6.77;93.21;100175.79;126555;1251;3011173;-62
2024/03/13 01:14:13;;;;;;;65.90;38.10;;;;;;;6.73;93.21;100174.90;128790;1251;114989;-62
2024/03/13 01:17:24;;;;;;;61.80;34.60;;;;;;;6.68;93.29;100176.84;128758;1256;115215;-63
2024/03/13 01:20:30;;;;;;;59.70;33.30;;;;;;;6.63;93.34;100177.36;128798;1251;113556;-63
2024/03/13 01:23:42;;;;;;;67.20;37.00;;;;;;;6.58;93.20;100174.67;128859;1256;114374;-62
2024/03/13 01:26:49;;;;;;;65.20;35.60;;;;;;;6.54;93.14;100176.94;128717;1251;128967;-63
2024/03/13 01:29:56;;;;;;;64.30;34.30;;;;;;;6.48;93.04;100180.02;131959;1251;114671;-63
2024/03/13 01:32:59;;;;;;;65.10;35.10;;;;;;;6.47;92.95;100180.77;131899;1256;114645;-64
2024/03/13 01:36:08;;;;;;;59.30;33.60;;;;;;;6.43;92.86;100177.90;128750;1266;115303;-62
2024/03/13 01:39:12;;;;;;;61.60;36.30;;;;;;;6.39;93.03;100179.61;128817;1257;114413;-62
2024/03/13 01:56:27;;;;;;;61.80;33.80;;;;;;;6.16;93.01;100173.80;128806;1257;114035;-63
2024/03/13 01:59:48;;;;;;;58.90;32.60;;;;;;;6.13;93.05;100175.50;128716;1257;126906;-63
2024/03/13 02:03:07;;;;;;;57.80;30.50;;;;;;;6.11;93.19;100169.91;128732;1251;113447;-63
2024/03/13 02:06:17;;;;;;;53.00;28.80;;;;;;;6.09;93.27;100168.73;128777;1259;113211;-63
2024/03/13 02:09:25;;;;;;;51.10;27.80;;;;;;;6.08;93.44;100170.52;128849;1251;113179;-63
2024/03/13 02:12:32;;;;;;;50.10;27.90;;;;;;;6.07;93.51;100165.94;128752;1255;114668;-61
2024/03/13 02:15:41;;;;;;;49.00;26.90;;;;;;;6.05;93.43;100166.38;128783;1251;128520;-62
2024/03/13 02:18:51;;;;;;;47.80;27.50;;;;;;;6.03;93.36;100167.33;128918;1251;114868;-62
2024/03/13 02:22:02;;;;;;;44.50;23.40;;;;;;;6.02;93.22;100165.41;128921;1256;113323;-62
2024/03/13 02:25:09;;;;;;;38.30;21.60;;;;;;;6.01;93.56;100170.23;128994;1257;113304;-61
2024/03/13 02:28:18;;;;;;;40.30;22.20;;;;;;;6.00;93.39;100170.08;129044;1257;114502;-62
2024/03/13 02:31:26;;;;;;;38.70;22.70;;;;;;;5.98;93.23;100171.00;128975;1251;128093;-63
2024/03/13 02:34:30;;;;;;;38.90;21.90;;;;;;;5.95;93.22;100176.44;128912;1256;114702;-63
2024/03/13 02:37:34;;;;;;;36.40;22.20;;;;;;;5.90;93.10;100180.81;129090;1256;113216;-62
2024/03/13 02:40:46;;;;;;;33.60;20.20;;;;;;;5.86;93.11;100183.09;128951;1251;113252;-61
2024/03/13 02:43:57;;;;;;;36.90;20.50;;;;;;;5.83;93.20;100185.12;129160;1256;113563;-64
2024/03/13 02:47:08;;;;;;;33.00;20.60;;;;;;;5.83;93.26;100188.88;129128;1256;128661;-68
2024/03/13 02:50:11;;;;;;;32.60;21.00;;;;;;;5.83;93.64;100186.73;129073;1256;114693;-71
2024/03/13 02:53:18;;;;;;;36.80;21.50;;;;;;;5.85;93.84;100189.68;129137;1256;113206;-64
2024/03/13 02:56:26;;;;;;;34.00;21.00;;;;;;;5.88;94.01;100184.79;129015;1251;114720;-63
2024/03/13 02:59:34;;;;;;;32.40;21.10;;;;;;;5.91;94.13;100187.89;128918;1257;114010;-65
2024/03/13 03:02:42;;;;;;;32.70;19.60;;;;;;;5.95;94.44;100194.69;128977;1264;128249;-65
2024/03/13 03:05:46;;;;;;;30.00;18.20;;;;;;;5.98;94.31;100194.05;128812;1251;114808;-66
2024/03/13 03:08:52;;;;;;;30.50;17.10;;;;;;;6.01;94.50;100191.84;129009;1256;113386;-71
2024/03/13 03:12:00;;;;;;;30.40;17.80;;;;;;;6.05;94.51;100192.95;131995;1255;114476;-69
2024/03/13 03:15:10;;;;;;;25.50;17.20;;;;;;;6.10;94.87;100195.13;128880;1251;113325;-66
2024/03/13 03:18:17;;;;;;;24.00;16.40;;;;;;;6.14;94.91;100198.35;129089;1256;127692;-64
2024/03/13 03:21:25;;;;;;;21.10;14.70;;;;;;;6.17;94.85;100196.47;128955;1257;114793;-62
2024/03/13 03:24:35;;;;;;;19.80;13.70;;;;;;;6.20;94.95;100196.71;128916;1257;113211;-63
2024/03/13 03:27:47;;;;;;;21.70;13.10;;;;;;;6.24;95.06;100195.00;129145;1256;113555;-63
2024/03/13 03:30:56;;;;;;;19.40;13.20;;;;;;;6.27;95.07;100194.57;129117;1261;115159;-63
2024/03/13 03:33:59;;;;;;;15.70;12.10;;;;;;;6.29;94.95;100197.84;132010;1257;126690;-65
2024/03/13 03:37:05;;;;;;;15.30;11.10;;;;;;;6.32;94.81;100200.77;129037;1251;113900;-62
2024/03/13 03:40:13;;;;;;;19.60;11.60;;;;;;;6.34;94.78;100207.80;132054;1254;113510;-61
2024/03/13 03:43:21;;;;;;;17.20;11.10;;;;;;;6.37;94.94;100205.77;128964;1254;114690;-63
2024/03/13 03:46:29;;;;;;;17.00;10.00;;;;;;;6.39;94.94;100208.33;128951;1257;113500;-62
2024/03/13 03:49:34;;;;;;;17.00;11.20;;;;;;;6.42;94.95;100210.92;129046;1256;127753;-63
2024/03/13 03:52:41;;;;;;;17.20;10.80;;;;;;;6.43;95.03;100211.95;129080;1251;114706;-63
2024/03/13 03:55:45;;;;;;;17.30;10.10;;;;;;;6.45;95.17;100212.92;131777;1257;113726;-62
2024/03/13 03:58:52;;;;;;;15.20;9.90;;;;;;;6.47;95.09;100211.61;128958;1251;113402;-62
2024/03/13 04:02:01;;;;;;;15.80;10.50;;;;;;;6.49;94.84;100214.58;129027;1251;113973;-64
2024/03/13 04:05:08;;;;;;;17.40;10.40;;;;;;;6.50;94.93;100212.39;131986;1255;127757;-64
2024/03/13 04:08:15;;;;;;;13.70;10.80;;;;;;;6.52;94.90;100211.65;131927;1251;114679;-63
2024/03/13 04:11:21;;;;;;;16.30;9.60;;;;;;;6.52;94.81;100214.66;128927;1259;113224;-64
2024/03/13 04:14:25;;;;;;;15.20;10.60;;;;;;;6.52;94.64;100220.13;132027;1255;114712;-63
2024/03/13 04:17:29;;;;;;;14.70;9.90;;;;;;;6.53;94.69;100219.55;131934;1251;113400;-64
2024/03/13 04:20:38;;;;;;;14.50;10.20;;;;;;;6.54;94.46;100220.07;129053;1256;127708;-62
2024/03/13 04:23:49;;;;;;;15.40;9.60;;;;;;;6.56;94.45;100222.50;129009;1257;114700;-63
2024/03/13 04:26:54;;;;;;;14.60;10.40;;;;;;;6.58;94.63;100226.70;129082;1256;113109;-62
2024/03/13 04:30:03;;;;;;;15.90;9.90;;;;;;;6.59;94.68;100226.12;129049;1257;113207;-63
2024/03/13 04:33:10;;;;;;;15.00;10.90;;;;;;;6.60;94.56;100228.03;128996;1251;113141;-64
2024/03/13 04:36:16;;;;;;;16.80;10.00;;;;;;;6.63;94.67;100229.70;128824;1251;129013;-62
2024/03/13 04:39:21;;;;;;;15.50;10.10;;;;;;;6.65;94.57;100231.77;128833;1257;114691;-62
2024/03/13 04:42:26;;;;;;;13.50;9.60;;;;;;;6.67;94.62;100231.18;128861;1256;113323;-63
2024/03/13 04:45:31;;;;;;;13.90;9.40;;;;;;;6.67;94.58;100232.22;128818;1260;113225;-62
2024/03/13 04:48:36;;;;;;;16.10;10.10;;;;;;;6.69;94.60;100234.11;128757;1260;113349;-66
2024/03/13 04:51:47;;;;;;;15.80;10.50;;;;;;;6.71;94.64;100235.12;129348;1251;129277;-62
2024/03/13 04:54:53;;;;;;;14.90;10.20;;;;;;;6.73;94.49;100238.06;128768;1260;114753;-62
2024/03/13 04:58:01;;;;;;;17.20;11.70;;;;;;;6.71;94.74;100237.08;130063;1251;113212;-63
2024/03/13 05:01:07;;;;;;;16.30;11.30;;;;;;;6.73;94.21;100249.25;128837;1257;114080;-63
2024/03/13 05:04:14;;;;;;;18.10;11.90;;;;;;;6.73;94.45;100248.91;128671;1252;113198;-62
2024/03/13 05:07:19;;;;;;;18.50;12.40;;;;;;;6.72;94.30;100252.13;128675;1258;128698;-64
2024/03/13 05:10:23;;;;;;;;;;;;;;;6.71;94.06;100251.27;131756;1254;114779;-65
2024/03/13 05:13:32;;;;;;;15.60;9.80;;;;;;;6.69;94.45;100255.04;128946;1256;113233;-63
2024/03/13 05:16:41;;;;;;;15.70;10.20;;;;;;;6.69;94.03;100252.23;129028;1251;113304;-64
2024/03/13 05:19:54;;;;;;;15.70;10.00;;;;;;;6.69;94.06;100256.49;128897;1252;114798;-62
2024/03/13 05:23:06;;;;;;;16.40;10.30;;;;;;;6.69;94.19;100260.04;128809;1251;128679;-62
2024/03/13 05:26:12;;;;;;;16.20;11.10;;;;;;;6.70;94.33;100258.93;128707;1262;114683;-62
2024/03/13 05:29:18;;;;;;;17.10;11.00;;;;;;;6.71;94.20;100261.92;128810;1260;113415;-62
2024/03/13 05:32:23;;;;;;;16.50;11.50;;;;;;;6.73;94.39;100268.60;128835;1251;113341;-62
2024/03/13 05:35:28;;;;;;;17.80;11.00;;;;;;;6.74;94.33;100273.70;128744;1267;113487;-62
2024/03/13 05:38:34;;;;;;;17.10;10.60;;;;;;;6.76;94.38;100276.12;128771;1264;127747;-65
2024/03/13 05:41:40;;;;;;;17.70;11.80;;;;;;;6.78;94.49;100277.31;128812;1251;114683;-63
2024/03/13 05:44:43;;;;;;;18.40;11.20;;;;;;;6.79;94.38;100277.05;131967;1256;113180;-63
2024/03/13 05:47:48;;;;;;;19.70;12.30;;;;;;;6.82;94.14;100281.77;128815;1257;116052;-66
2024/03/13 05:50:53;;;;;;;17.40;10.80;;;;;;;6.85;94.62;100280.61;128891;1257;113533;-67
2024/03/13 05:53:58;;;;;;;19.50;10.60;;;;;;;6.88;94.35;100281.92;128913;1257;127929;-63
2024/03/13 05:57:05;;;;;;;16.70;10.90;;;;;;;6.92;94.14;100283.05;128775;1256;114867;-64
2024/03/13 06:00:13;;;;;;;18.70;10.40;;;;;;;6.96;94.53;100288.74;128884;1257;113187;-64
2024/03/13 06:03:18;;;;;;;17.90;11.90;;;;;;;6.99;94.38;100289.35;128943;1251;113183;-67
2024/03/13 06:06:22;;;;;;;17.30;12.20;;;;;;;7.03;94.32;100292.95;131843;1255;114040;-72
2024/03/13 06:09:28;;;;;;;15.50;10.90;;;;;;;7.07;94.27;100294.94;128828;1255;114696;-72
2024/03/13 06:12:37;;;;;;;18.50;12.80;;;;;;;7.12;94.59;100295.11;128655;1264;115358;-63
2024/03/13 06:15:43;;;;;;;18.40;10.90;;;;;;;7.17;94.27;100296.22;128901;1256;113261;-63
2024/03/13 06:18:48;;;;;;;17.00;10.90;;;;;;;7.20;94.20;100293.96;128873;1251;113390;-63
2024/03/13 06:21:51;;;;;;;15.80;11.30;;;;;;;7.23;94.17;100294.01;131931;1251;113226;-64
2024/03/13 06:25:00;;;;;;;15.40;10.30;;;;;;;7.29;94.30;100295.77;128945;1251;127741;-63
2024/03/13 06:31:35;;;;;;;16.10;10.70;;;;;;;7.44;94.45;100301.45;129012;1257;113291;-62
2024/03/13 06:34:45;;;;;;;18.80;12.50;;;;;;;7.52;94.15;100304.54;128975;1251;113198;-62
2024/03/13 06:37:50;;;;;;;18.40;12.90;;;;;;;7.59;94.15;100303.20;128909;1251;113312;-63
2024/03/13 06:41:00;;;;;;;19.10;12.90;;;;;;;7.68;94.03;100301.27;130847;1251;128775;-67
2024/03/13 06:44:05;;;;;;;16.60;11.60;;;;;;;7.77;94.55;100300.95;128783;1256;115294;-62
2024/03/13 06:47:11;;;;;;;16.10;10.70;;;;;;;7.88;94.22;100303.20;131879;1257;114721;-67
2024/03/13 06:50:21;;;;;;;16.30;11.20;;;;;;;7.97;94.20;100312.08;128836;1256;115313;-62
2024/03/13 06:53:28;;;;;;;15.70;11.20;;;;;;;8.10;94.53;100312.65;128908;1251;113165;-63
2024/03/13 06:56:31;;;;;;;18.10;12.40;;;;;;;8.22;93.91;100318.23;131920;1251;127791;-64
2024/03/13 06:59:44;;;;;;;19.30;10.30;;;;;;;8.31;93.91;100322.50;128751;1256;114843;-64
2024/03/13 07:02:50;;;;;;;17.60;12.10;;;;;;;8.41;93.59;100322.85;128819;1261;113317;-64
2024/03/13 07:06:00;;;;;;;15.80;9.90;;;;;;;8.47;93.39;100324.73;128739;1251;114074;-63
2024/03/13 07:09:07;;;;;;;14.80;9.80;;;;;;;8.53;93.30;100325.92;128961;1251;113505;-63
2024/03/13 07:12:13;;;;;;;17.50;10.00;;;;;;;8.57;93.12;100325.98;128937;1253;128152;-63
2024/03/13 07:15:21;;;;;;;15.50;11.20;;;;;;;8.63;93.00;100332.48;128865;1256;113166;-63
2024/03/13 07:18:26;;;;;;;14.00;9.80;;;;;;;8.71;92.81;100334.10;128956;1264;113415;-63
2024/03/13 07:21:29;;;;;;;13.60;11.10;;;;;;;8.83;92.89;100333.27;131946;1251;113235;-62
2024/03/13 07:24:36;;;;;;;13.40;9.30;;;;;;;8.93;92.56;100331.77;131905;1251;114725;-63
2024/03/13 07:27:40;;;;;;;13.40;10.00;;;;;;;9.03;92.53;100337.95;129636;1251;127958;-62
2024/03/13 07:30:49;;;;;;;14.00;10.00;;;;;;;9.15;92.42;100336.40;128834;1257;114977;-62
2024/03/13 07:33:56;;;;;;;15.80;10.40;;;;;;;9.24;92.05;100337.39;128919;1256;113206;-65
2024/03/13 07:37:01;;;;;;;16.50;11.20;;;;;;;9.38;91.68;100340.34;128845;1251;113194;-63
2024/03/13 07:40:09;;;;;;;15.00;9.70;;;;;;;9.53;91.85;100338.63;129154;1260;113377;-64
2024/03/13 07:43:18;;;;;;;16.40;10.90;;;;;;;9.70;92.06;100340.36;128918;1251;128035;-63
2024/03/13 07:46:25;;;;;;;16.10;9.60;;;;;;;9.88;91.70;100340.44;128714;1257;114895;-63
2024/03/13 07:49:32;;;;;;;14.30;9.50;;;;;;;10.05;91.28;100339.32;128815;1251;113364;-63
2024/03/13 07:52:38;;;;;;;14.10;10.40;;;;;;;10.22;91.53;100337.10;131936;1255;113293;-62
2024/03/13 07:55:46;;;;;;;13.90;9.30;;;;;;;10.39;91.10;100337.39;128854;1258;113237;-63
2024/03/13 12:22:14;;;;;;;10.20;7.10;;;;;;;13.27;67.52;100331.20;127414;1294;648674;-63
2024/03/13 12:25:17;;;;;;;9.70;6.80;;;;;;;13.32;67.56;100329.70;129020;1287;360456;-65
2024/03/13 12:28:24;;;;;;;12.40;7.80;;;;;;;13.31;67.57;100329.58;129229;1277;114797;-65
2024/03/13 12:31:26;;;;;;;9.20;7.00;;;;;;;13.29;67.29;100322.86;129486;1285;114803;-63
2024/03/13 12:34:31;;;;;;;10.60;6.90;;;;;;;13.29;67.74;100322.84;130294;1260;114724;-64
2024/03/13 12:37:34;;;;;;;;;;;;;;;13.30;67.73;100322.42;130219;1278;114738;-64
2024/03/13 12:40:36;;;;;;;13.10;8.80;;;;;;;13.33;67.26;100321.02;129975;1262;127647;-64
2024/03/13 12:43:40;;;;;;;10.40;8.20;;;;;;;13.34;66.90;100320.55;130271;1261;114721;-65
2024/03/13 12:46:44;;;;;;;9.70;7.20;;;;;;;13.38;66.55;100321.23;130263;1257;115338;-66
2024/03/13 12:49:46;;;;;;;9.70;7.00;;;;;;;13.41;66.34;100320.55;130249;1278;114772;-65
2024/03/13 12:52:50;;;;;;;10.70;7.30;;;;;;;13.47;66.40;100323.94;130289;1278;114792;-66
2024/03/13 12:55:54;;;;;;;8.90;6.60;;;;;;;13.52;65.84;100318.98;130242;1260;114718;-65
2024/03/13 12:58:57;;;;;;;8.90;6.20;;;;;;;13.53;65.41;100320.38;130260;1259;115116;-64
2024/03/13 13:02:01;;;;;;;9.50;7.30;;;;;;;13.51;65.17;100318.48;129774;1259;114859;-64
2024/03/13 13:05:05;;;;;;;9.30;7.10;;;;;;;13.50;65.11;100318.52;130021;1278;114696;-65
2024/03/13 13:08:10;;;;;;;8.60;6.50;;;;;;;13.50;65.39;100319.46;129832;1275;114712;-65
2024/03/13 13:11:14;;;;;;;9.90;7.20;;;;;;;13.49;65.28;100317.53;129732;1263;127539;-64
2024/03/13 13:14:16;;;;;;;10.20;7.10;;;;;;;13.47;64.94;100321.27;130003;1258;115410;-65
2024/03/13 13:17:18;;;;;;;8.00;6.50;;;;;;;13.42;64.31;100322.83;130178;1278;114800;-65
2024/03/13 13:20:22;;;;;;;10.80;7.30;;;;;;;13.36;63.62;100325.65;130302;1257;114709;-65
2024/03/13 13:23:25;;;;;;;8.30;6.50;;;;;;;13.32;64.15;100325.71;130174;1278;114640;-64
2024/03/13 13:26:27;;;;;;;9.00;6.30;;;;;;;13.29;63.91;100325.21;129872;1278;114857;-64
2024/03/13 13:29:30;;;;;;;10.40;6.10;;;;;;;13.25;63.64;100324.17;130028;1259;114800;-65
2024/03/13 13:32:32;;;;;;;9.30;6.70;;;;;;;13.20;63.01;100328.77;130005;1257;114727;-64
2024/03/13 13:35:35;;;;;;;12.20;7.50;;;;;;;13.14;62.70;100327.70;130008;1274;114791;-64
2024/03/13 13:38:40;;;;;;;11.50;7.30;;;;;;;13.12;62.77;100321.91;130026;1264;114824;-64
2024/03/13 13:41:43;;;;;;;10.10;6.40;;;;;;;13.12;62.76;100322.44;130202;1257;114680;-64
2024/03/13 13:44:51;;;;;;;10.70;6.40;;;;;;;13.09;62.23;100325.27;130199;1260;114721;-64
2024/03/13 13:47:53;;;;;;;8.90;6.20;;;;;;;13.06;62.35;100325.48;130201;1260;114712;-65
2024/03/13 13:50:55;;;;;;;7.90;5.90;;;;;;;13.02;62.07;100327.15;129980;1260;114711;-64
2024/03/13 13:53:57;;;;;;;8.90;6.20;;;;;;;12.95;62.17;100331.33;130335;1257;114730;-64
2024/03/13 13:57:00;;;;;;;8.40;5.30;;;;;;;12.87;61.51;100335.05;130191;1256;114759;-64
2024/03/13 14:00:08;;;;;;;10.80;6.50;;;;;;;12.79;61.65;100335.86;130247;1278;114725;-64
2024/03/13 14:03:11;;;;;;;10.40;6.60;;;;;;;12.70;61.53;100334.20;129555;1256;127549;-65
2024/03/13 14:06:13;;;;;;;11.10;8.00;;;;;;;12.62;61.38;100340.58;130262;1260;114696;-64
2024/03/13 14:09:16;;;;;;;10.60;7.30;;;;;;;12.56;61.28;100338.98;130286;1260;114702;-64
2024/03/13 14:12:23;;;;;;;9.00;7.20;;;;;;;12.51;61.60;100335.98;130194;1260;114708;-64
2024/03/13 14:15:25;;;;;;;10.20;7.80;;;;;;;12.49;61.55;100334.87;130024;1258;116339;-65
2024/03/13 14:18:27;;;;;;;9.10;6.40;;;;;;;12.45;61.41;100330.77;130183;1276;114823;-65
2024/03/13 14:21:29;;;;;;;9.30;6.20;;;;;;;12.43;61.45;100325.73;130248;1271;114676;-65
2024/03/13 14:24:31;;;;;;;10.30;6.40;;;;;;;12.43;61.37;100330.88;130235;1257;127496;-65
2024/03/13 14:27:33;;;;;;;10.70;7.00;;;;;;;12.45;61.70;100331.87;130218;1257;114695;-65
2024/03/13 14:30:37;;;;;;;13.00;7.70;;;;;;;12.45;61.65;100332.20;130187;1260;114754;-65
2024/03/13 14:33:39;;;;;;;12.10;7.70;;;;;;;12.49;61.58;100334.33;129765;1260;114872;-66
2024/03/13 14:36:42;;;;;;;12.90;8.20;;;;;;;12.53;61.83;100332.65;130139;1260;114817;-64
2024/03/13 14:39:44;;;;;;;11.50;6.60;;;;;;;12.59;61.54;100333.40;129993;1260;114773;-64
2024/03/13 14:42:46;;;;;;;10.40;6.50;;;;;;;12.65;61.35;100328.74;130372;1260;114764;-64
2024/03/13 14:45:48;;;;;;;10.20;7.30;;;;;;;12.72;61.12;100329.57;130183;1260;128936;-66
2024/03/13 14:48:50;;;;;;;8.50;6.50;;;;;;;12.80;61.46;100335.92;130217;1258;115057;-65
2024/03/13 14:51:53;;;;;;;11.10;7.40;;;;;;;12.87;61.08;100333.05;129940;1260;114776;-64
2024/03/13 14:54:55;;;;;;;10.30;7.40;;;;;;;12.89;60.96;100330.23;130053;1278;114836;-64
2024/03/13 14:58:00;;;;;;;11.70;8.10;;;;;;;12.90;60.97;100333.40;130319;1260;114716;-64
2024/03/13 15:01:02;;;;;;;13.70;9.00;;;;;;;12.90;61.32;100335.00;130266;1278;114763;-65
2024/03/13 15:04:05;;;;;;;12.60;9.20;;;;;;;12.91;61.44;100332.81;130228;1260;114770;-64
2024/03/13 15:07:09;;;;;;;12.90;9.50;;;;;;;12.88;61.55;100341.58;130168;1257;114698;-64
2024/03/13 15:10:11;;;;;;;12.80;9.50;;;;;;;12.86;61.50;100340.63;129614;1278;116488;-64
2024/03/13 15:13:14;;;;;;;11.60;8.90;;;;;;;12.82;61.76;100339.63;130057;1260;114718;-64
2024/03/13 15:16:17;;;;;;;14.50;10.60;;;;;;;12.79;61.73;100344.11;130201;1260;114727;-64
2024/03/13 15:19:19;;;;;;;13.80;9.60;;;;;;;12.72;61.79;100342.49;130127;1258;115255;-65
2024/03/13 15:22:24;;;;;;;12.20;8.10;;;;;;;12.68;61.73;100344.21;130028;1278;114730;-64
2024/03/13 15:25:27;;;;;;;12.90;9.60;;;;;;;12.61;61.86;100346.73;129583;1261;128476;-65
2024/03/13 15:28:29;;;;;;;14.00;9.90;;;;;;;12.56;61.94;100342.88;130128;1257;114827;-64
2024/03/13 15:31:31;;;;;;;12.30;8.60;;;;;;;12.51;61.31;100341.36;130139;1276;114791;-64
2024/03/13 15:34:33;;;;;;;11.70;8.10;;;;;;;12.42;61.28;100335.47;130219;1278;114709;-64
2024/03/13 15:37:35;;;;;;;13.40;9.30;;;;;;;12.34;61.36;100338.36;129967;1260;114778;-65
2024/03/13 15:40:37;;;;;;;12.90;9.40;;;;;;;12.28;61.35;100335.69;129938;1278;114687;-65
2024/03/13 15:43:39;;;;;;;14.90;9.50;;;;;;;12.20;61.10;100340.08;129905;1276;114797;-64
2024/03/13 15:46:41;;;;;;;15.80;11.50;;;;;;;12.12;61.53;100332.27;130389;1278;115087;-64
2024/03/13 15:49:43;;;;;;;17.90;12.10;;;;;;;12.06;61.77;100333.33;129864;1263;116341;-64
2024/03/13 15:52:46;;;;;;;17.10;11.60;;;;;;;12.02;61.78;100336.59;130152;1260;114785;-64
2024/03/13 15:55:49;;;;;;;13.20;8.90;;;;;;;11.96;61.81;100333.66;130170;1278;114783;-64
2024/03/13 15:58:52;;;;;;;11.40;8.80;;;;;;;11.88;61.71;100335.36;130156;1260;114729;-64
2024/03/13 16:01:54;;;;;;;14.40;9.40;;;;;;;11.81;61.54;100337.33;130280;1256;114739;-64
2024/03/13 16:04:56;;;;;;;11.20;8.70;;;;;;;11.76;61.85;100334.92;129862;1260;128648;-64
2024/03/13 16:08:25;;;;;;;19.50;9.10;;;;;;;11.72;62.63;100333.17;129933;1278;114814;-64
2024/03/13 16:11:28;;;;;;;11.70;8.60;;;;;;;11.66;62.42;100335.80;129856;1263;114795;-63
2024/03/13 16:14:31;;;;;;;11.90;8.40;;;;;;;11.60;62.55;100334.13;129685;1263;114868;-64
2024/03/13 16:17:33;;;;;;;12.40;7.60;;;;;;;11.56;62.60;100335.45;129948;1260;114753;-64
2024/03/13 16:20:36;;;;;;;13.10;8.00;;;;;;;11.51;62.67;100336.03;129895;1278;114956;-64
2024/03/13 16:23:40;;;;;;;13.80;9.30;;;;;;;11.44;62.67;100333.39;129972;1260;114829;-63
2024/03/13 16:26:44;;;;;;;14.00;9.40;;;;;;;11.38;62.71;100337.27;130004;1260;115382;-64
2024/03/13 16:29:46;;;;;;;14.70;9.20;;;;;;;11.31;62.51;100342.48;129944;1260;114715;-64
2024/03/13 16:32:49;;;;;;;16.50;11.60;;;;;;;11.24;62.69;100344.27;129928;1257;114770;-64
2024/03/13 16:35:51;;;;;;;17.30;11.50;;;;;;;11.18;62.77;100345.64;130014;1278;114722;-64
2024/03/13 16:38:56;;;;;;;17.60;12.50;;;;;;;11.12;63.04;100348.60;130022;1257;114772;-65
2024/03/13 16:41:58;;;;;;;14.50;10.00;;;;;;;11.07;63.25;100352.46;129617;1276;114879;-64
2024/03/13 16:45:01;;;;;;;18.00;11.20;;;;;;;11.00;63.63;100354.73;130119;1257;114680;-64
2024/03/13 16:48:04;;;;;;;16.40;10.50;;;;;;;10.94;63.72;100356.13;129927;1260;114767;-64
2024/03/13 16:51:06;;;;;;;17.60;12.00;;;;;;;10.89;63.86;100361.41;130231;1278;114717;-66
2024/03/13 16:54:08;;;;;;;17.40;11.60;;;;;;;10.84;64.55;100365.05;130049;1260;115093;-64
2024/03/13 16:57:11;;;;;;;18.00;10.10;;;;;;;10.78;64.79;100368.14;129667;1278;127914;-65
2024/03/13 17:00:16;;;;;;;16.50;10.30;;;;;;;10.74;65.19;100368.91;130266;1260;114652;-64
2024/03/13 17:03:19;;;;;;;19.70;10.80;;;;;;;10.68;65.21;100374.20;129688;1263;114786;-65
2024/03/13 17:06:21;;;;;;;16.00;10.50;;;;;;;10.61;65.36;100369.89;130239;1260;116142;-64
2024/03/13 17:09:24;;;;;;;18.20;11.40;;;;;;;10.56;65.35;100375.88;130237;1260;114782;-64
2024/03/13 17:12:28;;;;;;;13.20;9.70;;;;;;;10.52;65.56;100380.70;130207;1278;114808;-65
2024/03/13 17:15:30;;;;;;;16.00;11.30;;;;;;;10.47;65.99;100384.66;130216;1258;127692;-64
2024/03/13 17:18:32;;;;;;;17.00;9.50;;;;;;;10.43;66.08;100380.41;130178;1260;115327;-64
2024/03/13 17:21:34;;;;;;;13.90;10.60;;;;;;;10.38;66.40;100381.00;130271;1260;114721;-65
2024/03/13 17:24:37;;;;;;;16.70;11.20;;;;;;;10.33;66.22;100380.30;129865;1263;114739;-65
2024/03/13 17:27:42;;;;;;;14.40;9.50;;;;;;;10.28;66.34;100381.42;130189;1258;115189;-64
2024/03/13 17:30:44;;;;;;;13.80;8.30;;;;;;;10.23;66.64;100384.88;129854;1262;114704;-64
2024/03/13 17:33:46;;;;;;;19.00;12.00;;;;;;;10.19;66.74;100387.73;130205;1278;114647;-64
2024/03/13 17:36:49;;;;;;;17.50;11.60;;;;;;;10.15;66.98;100389.50;130270;1257;114699;-64
2024/03/13 17:39:51;;;;;;;17.20;12.30;;;;;;;10.13;67.28;100389.45;130043;1278;115192;-65
2024/03/13 17:42:54;;;;;;;22.20;16.70;;;;;;;10.10;67.37;100395.81;130360;1278;115251;-64
2024/03/13 17:45:56;;;;;;;20.90;13.40;;;;;;;10.07;67.57;100392.05;130200;1260;115348;-64
2024/03/13 17:48:58;;;;;;;29.80;19.80;;;;;;;10.04;67.80;100394.86;129911;1257;114725;-65
2024/03/13 17:52:00;;;;;;;28.00;17.00;;;;;;;9.99;67.67;100398.63;129898;1266;114892;-65
2024/03/13 17:55:03;;;;;;;24.00;16.70;;;;;;;9.96;67.86;100399.86;130122;1260;114715;-65
2024/03/13 17:58:05;;;;;;;31.00;18.40;;;;;;;9.92;68.12;100398.95;130234;1260;115467;-65
2024/03/13 18:01:08;;;;;;;34.30;19.40;;;;;;;9.89;68.45;100404.25;130133;1259;114773;-65
2024/03/13 18:04:11;;;;;;;32.50;18.00;;;;;;;9.85;68.59;100400.86;129920;1262;114715;-65
2024/03/13 18:07:13;;;;;;;35.60;20.80;;;;;;;9.80;68.19;100398.77;130185;1260;114855;-65
2024/03/13 18:10:19;;;;;;;43.80;27.30;;;;;;;9.77;68.33;100405.86;130175;1257;114709;-65
2024/03/13 18:13:22;;;;;;;47.70;28.10;;;;;;;9.75;68.59;100403.31;130143;1259;114706;-65
2024/03/13 18:16:25;;;;;;;39.00;22.40;;;;;;;9.72;68.65;100402.17;130152;1259;128960;-65
2024/03/13 18:19:27;;;;;;;39.50;23.40;;;;;;;9.71;68.79;100404.17;130251;1260;115138;-65
2024/03/13 18:22:29;;;;;;;40.10;21.70;;;;;;;9.68;68.91;100404.48;130189;1278;114703;-65
2024/03/13 18:25:32;;;;;;;32.00;18.60;;;;;;;9.65;68.79;100407.98;129914;1263;117245;-66
2024/03/13 18:28:35;;;;;;;34.50;20.50;;;;;;;9.65;69.23;100408.02;130177;1257;114764;-67
2024/03/13 18:31:37;;;;;;;31.20;18.00;;;;;;;9.64;69.11;100411.64;130138;1260;114801;-65
2024/03/13 18:34:39;;;;;;;33.20;19.50;;;;;;;9.62;69.83;100410.98;130211;1267;114770;-66